createdAt,value
2017-11-29T00:00:47.683Z,29.50
2017-11-29T00:03:15.281Z,23.63
2017-11-29T00:05:42.863Z,30.00
2017-11-29T00:08:10.512Z,36.30
2017-11-29T00:10:38.063Z,45.10
2017-11-29T00:13:05.667Z,41.93
2017-11-29T00:15:33.281Z,37.03
2017-11-29T00:18:00.842Z,30.03
2017-11-29T00:20:28.402Z,30.20
2017-11-29T00:22:56.004Z,33.30
2017-11-29T00:25:23.551Z,23.60
2017-11-29T00:30:41.582Z,11.00
2017-11-29T00:33:09.372Z,13.80
2017-11-29T00:35:36.935Z,9.20
2017-11-29T00:38:04.546Z,12.70
2017-11-29T00:40:32.107Z,11.87
2017-11-29T00:42:59.703Z,6.90
2017-11-29T00:45:27.323Z,6.50
2017-11-29T00:47:54.892Z,8.10
2017-11-29T00:50:22.459Z,6.90
2017-11-29T00:52:50.065Z,6.37
2017-11-29T00:55:17.635Z,12.37
2017-11-29T00:57:45.196Z,12.73
2017-11-29T01:00:12.789Z,12.73
2017-11-29T01:02:40.382Z,10.33
2017-11-29T01:05:07.964Z,13.50
2017-11-29T01:07:35.531Z,11.77
2017-11-29T01:10:03.106Z,13.57
2017-11-29T01:12:30.716Z,13.80
2017-11-29T01:14:58.253Z,7.77
2017-11-29T01:17:25.815Z,10.20
2017-11-29T01:19:53.393Z,13.00
2017-11-29T01:22:20.948Z,11.60
2017-11-29T01:24:48.550Z,10.47
2017-11-29T01:27:16.128Z,12.40
2017-11-29T01:29:43.732Z,8.60
2017-11-29T01:32:11.421Z,9.07
2017-11-29T01:34:39.039Z,15.07
2017-11-29T01:37:06.712Z,15.43
2017-11-29T01:39:34.296Z,12.70
2017-11-29T01:42:01.858Z,9.63
2017-11-29T01:44:29.464Z,10.90
2017-11-29T01:46:57.059Z,16.10
2017-11-29T01:49:24.619Z,9.57
2017-11-29T01:51:52.191Z,5.37
2017-11-29T01:54:19.823Z,5.40
2017-11-29T01:56:47.381Z,7.73
2017-11-29T01:59:14.960Z,9.30
2017-11-29T02:01:42.516Z,9.13
2017-11-29T02:04:10.142Z,9.13
2017-11-29T02:06:40.564Z,7.30
2017-11-29T02:09:08.185Z,8.40
2017-11-29T02:11:35.775Z,7.70
2017-11-29T02:14:03.325Z,6.73
2017-11-29T02:16:30.940Z,13.30
2017-11-29T02:18:58.500Z,10.50
2017-11-29T02:21:26.076Z,10.63
2017-11-29T02:23:53.671Z,10.60
2017-11-29T02:26:21.306Z,7.40
2017-11-29T02:28:48.963Z,6.27
2017-11-29T02:31:16.598Z,11.27
2017-11-29T02:33:44.294Z,12.87
2017-11-29T02:36:12.065Z,6.73
2017-11-29T02:38:39.693Z,8.50
2017-11-29T02:41:19.189Z,10.13
2017-11-29T02:43:47.296Z,12.13
2017-11-29T02:46:15.277Z,10.13
2017-11-29T02:48:42.916Z,10.63
2017-11-29T02:51:10.737Z,13.27
2017-11-29T02:53:38.329Z,8.23
2017-11-29T02:56:05.925Z,7.00
2017-11-29T02:58:33.596Z,7.93
2017-11-29T03:01:01.166Z,11.73
2017-11-29T03:03:28.743Z,11.53
2017-11-29T03:05:56.374Z,6.50
2017-11-29T03:08:24.014Z,11.27
2017-11-29T03:10:51.641Z,13.87
2017-11-29T03:13:19.319Z,15.60
2017-11-29T03:15:46.940Z,10.60
2017-11-29T03:18:14.488Z,7.30
2017-11-29T03:20:42.049Z,8.40
2017-11-29T03:23:09.745Z,9.40
2017-11-29T03:25:37.379Z,14.13
2017-11-29T03:28:04.944Z,26.17
2017-11-29T03:30:32.526Z,16.00
2017-11-29T03:33:00.138Z,11.90
2017-11-29T03:35:27.716Z,11.67
2017-11-29T03:37:55.306Z,14.37
2017-11-29T03:40:22.882Z,19.97
2017-11-29T03:42:50.470Z,14.90
2017-11-29T03:45:18.126Z,20.57
2017-11-29T03:47:45.715Z,22.70
2017-11-29T03:50:13.285Z,22.33
2017-11-29T03:52:40.902Z,18.60
2017-11-29T03:55:08.502Z,17.70
2017-11-29T03:57:36.079Z,22.70
2017-11-29T04:00:04.348Z,22.03
2017-11-29T04:02:32.017Z,16.40
2017-11-29T04:04:59.619Z,21.63
2017-11-29T04:07:27.223Z,21.57
2017-11-29T04:09:54.796Z,18.03
2017-11-29T04:12:23.258Z,24.60
2017-11-29T04:14:50.957Z,15.47
2017-11-29T04:17:18.581Z,19.40
2017-11-29T04:19:46.244Z,16.90
2017-11-29T04:22:13.917Z,19.07
2017-11-29T04:24:41.532Z,27.10
2017-11-29T04:27:09.312Z,24.03
2017-11-29T04:29:36.960Z,34.20
2017-11-29T04:32:04.525Z,30.13
2017-11-29T04:34:32.086Z,26.63
2017-11-29T04:36:59.711Z,28.13
2017-11-29T04:39:27.298Z,34.60
2017-11-29T04:41:54.884Z,35.07
2017-11-29T04:44:22.495Z,35.00
2017-11-29T04:46:50.064Z,38.13
2017-11-29T04:49:17.659Z,30.77
2017-11-29T04:51:45.302Z,41.60
2017-11-29T04:54:12.912Z,27.40
2017-11-29T04:56:40.537Z,26.90
2017-11-29T04:59:08.144Z,27.73
2017-11-29T05:01:35.850Z,36.20
2017-11-29T05:04:03.477Z,31.50
2017-11-29T05:06:31.150Z,41.83
2017-11-29T05:08:58.772Z,37.40
2017-11-29T05:11:26.451Z,34.90
2017-11-29T05:13:54.023Z,43.37
2017-11-29T05:16:21.638Z,33.80
2017-11-29T05:18:49.289Z,30.30
2017-11-29T05:21:16.871Z,33.90
2017-11-29T05:23:44.473Z,26.83
2017-11-29T05:26:12.060Z,28.83
2017-11-29T05:28:39.679Z,28.03
2017-11-29T05:31:07.306Z,31.20
2017-11-29T05:33:34.978Z,28.47
2017-11-29T05:36:02.579Z,29.73
2017-11-29T05:38:30.187Z,41.07
2017-11-29T05:43:29.640Z,39.20
2017-11-29T05:45:57.249Z,35.30
2017-11-29T05:48:24.898Z,39.80
2017-11-29T05:50:52.478Z,34.83
2017-11-29T05:53:20.068Z,36.80
2017-11-29T05:55:47.696Z,39.83
2017-11-29T05:58:15.269Z,45.00
2017-11-29T06:00:42.854Z,32.80
2017-11-29T06:03:10.733Z,35.43
2017-11-29T06:05:38.327Z,30.07
2017-11-29T06:08:05.907Z,36.37
2017-11-29T06:10:33.497Z,35.27
2017-11-29T06:13:01.096Z,31.93
2017-11-29T06:15:28.685Z,29.70
2017-11-29T06:17:56.298Z,33.63
2017-11-29T06:20:23.869Z,34.77
2017-11-29T06:22:51.453Z,32.07
2017-11-29T06:25:19.042Z,31.03
2017-11-29T06:27:46.609Z,34.20
2017-11-29T06:30:14.202Z,37.13
2017-11-29T06:32:41.771Z,35.50
2017-11-29T06:35:09.435Z,35.53
2017-11-29T06:37:37.029Z,33.87
2017-11-29T06:40:04.643Z,34.80
2017-11-29T06:42:32.231Z,35.83
2017-11-29T06:44:59.805Z,53.03
2017-11-29T06:47:27.432Z,41.70
2017-11-29T06:49:54.988Z,47.40
2017-11-29T06:52:22.891Z,58.20
2017-11-29T06:54:50.550Z,44.10
2017-11-29T06:57:18.182Z,47.23
2017-11-29T06:59:45.750Z,36.70
2017-11-29T07:02:14.124Z,159.23
2017-11-29T07:04:42.311Z,52.83
2017-11-29T07:07:10.595Z,47.40
2017-11-29T07:09:38.196Z,49.90
2017-11-29T07:12:06.492Z,40.63
2017-11-29T07:14:34.087Z,48.00
2017-11-29T07:17:03.608Z,45.77
2017-11-29T07:19:31.222Z,39.90
2017-11-29T07:21:58.815Z,42.90
2017-11-29T07:24:26.444Z,49.30
2017-11-29T07:26:54.044Z,45.57
2017-11-29T07:29:21.635Z,60.33
2017-11-29T07:31:49.297Z,45.07
2017-11-29T07:34:16.867Z,57.83
2017-11-29T07:36:44.423Z,72.10
2017-11-29T07:39:12.315Z,51.63
2017-11-29T07:41:39.859Z,56.60
2017-11-29T07:44:07.443Z,48.30
2017-11-29T07:46:35.265Z,42.53
2017-11-29T07:49:02.852Z,52.10
2017-11-29T07:51:30.409Z,58.90
2017-11-29T07:53:58.026Z,51.07
2017-11-29T07:56:25.606Z,44.87
2017-11-29T07:58:53.180Z,54.40
2017-11-29T08:01:21.016Z,54.83
2017-11-29T08:03:48.680Z,38.50
2017-11-29T08:06:16.278Z,49.73
2017-11-29T08:08:43.879Z,47.20
2017-11-29T08:11:11.642Z,65.30
2017-11-29T08:13:39.219Z,58.10
2017-11-29T08:16:07.644Z,52.80
2017-11-29T08:18:35.193Z,43.70
2017-11-29T08:21:02.772Z,44.97
2017-11-29T08:23:30.363Z,42.00
2017-11-29T08:25:57.943Z,47.60
2017-11-29T08:28:25.639Z,50.03
2017-11-29T08:30:53.223Z,43.57
2017-11-29T08:33:20.937Z,59.33
2017-11-29T08:35:48.627Z,54.80
2017-11-29T08:38:16.241Z,65.10
2017-11-29T08:40:43.905Z,45.77
2017-11-29T08:43:11.696Z,46.20
2017-11-29T08:45:39.320Z,52.03
2017-11-29T08:48:06.908Z,57.73
2017-11-29T08:50:34.515Z,41.63
2017-11-29T08:53:02.141Z,61.60
2017-11-29T08:55:29.761Z,33.40
2017-11-29T08:57:57.354Z,41.27
2017-11-29T09:00:25.016Z,38.23
2017-11-29T09:02:52.609Z,37.43
2017-11-29T09:05:20.225Z,45.00
2017-11-29T09:07:47.784Z,45.03
2017-11-29T09:10:15.381Z,40.43
2017-11-29T09:12:43.011Z,49.97
2017-11-29T09:15:10.795Z,48.67
2017-11-29T09:17:38.411Z,46.10
2017-11-29T09:20:05.980Z,45.07
2017-11-29T09:22:33.564Z,31.60
2017-11-29T09:25:01.258Z,31.87
2017-11-29T09:27:28.917Z,29.10
2017-11-29T09:29:56.479Z,28.77
2017-11-29T09:32:24.092Z,32.97
2017-11-29T09:34:51.713Z,24.47
2017-11-29T09:37:19.274Z,24.97
2017-11-29T09:39:46.955Z,25.70
2017-11-29T09:42:14.733Z,23.70
2017-11-29T09:44:42.611Z,19.33
2017-11-29T09:47:10.470Z,24.70
2017-11-29T09:49:38.108Z,32.83
2017-11-29T09:52:05.678Z,35.70
2017-11-29T09:54:33.365Z,23.80
2017-11-29T09:57:01.004Z,25.80
2017-11-29T09:59:28.640Z,25.00
2017-11-29T10:01:56.331Z,25.83
2017-11-29T10:04:23.979Z,28.93
2017-11-29T10:06:51.562Z,38.73
2017-11-29T10:09:19.148Z,37.00
2017-11-29T10:11:46.796Z,35.93
2017-11-29T10:14:14.433Z,28.57
2017-11-29T10:16:42.076Z,33.50
2017-11-29T10:19:09.899Z,42.70
2017-11-29T10:21:37.623Z,61.30
2017-11-29T10:24:05.325Z,48.90
2017-11-29T10:26:32.920Z,36.13
2017-11-29T10:29:00.534Z,20.30
2017-11-29T10:31:28.286Z,19.67
2017-11-29T10:33:55.842Z,21.03
2017-11-29T10:36:23.443Z,24.73
2017-11-29T10:38:51.084Z,19.73
2017-11-29T10:41:18.639Z,24.70
2017-11-29T10:43:46.239Z,24.10
2017-11-29T10:46:13.873Z,27.47
2017-11-29T10:48:41.514Z,19.10
2017-11-29T10:51:09.190Z,19.20
2017-11-29T10:53:36.831Z,18.70
2017-11-29T10:56:04.443Z,17.70
2017-11-29T10:58:32.338Z,18.30
2017-11-29T11:00:59.916Z,20.10
2017-11-29T11:03:27.506Z,18.83
2017-11-29T11:05:55.134Z,18.07
2017-11-29T11:08:22.713Z,20.30
2017-11-29T11:10:50.340Z,18.63
2017-11-29T11:13:18.019Z,16.57
2017-11-29T11:15:45.600Z,19.13
2017-11-29T11:18:13.231Z,22.30
2017-11-29T11:20:40.908Z,17.70
2017-11-29T11:23:08.645Z,20.53
2017-11-29T11:25:36.499Z,57.13
2017-11-29T11:28:04.268Z,19.63
2017-11-29T11:30:31.965Z,77.83
2017-11-29T11:32:59.614Z,31.87
2017-11-29T11:35:27.259Z,18.80
2017-11-29T11:37:55.253Z,19.63
2017-11-29T11:40:22.860Z,15.57
2017-11-29T11:42:50.502Z,16.47
2017-11-29T11:45:18.196Z,18.17
2017-11-29T11:47:45.779Z,27.50
2017-11-29T11:50:13.400Z,18.50
2017-11-29T11:52:41.094Z,18.57
2017-11-29T11:55:10.098Z,18.63
2017-11-29T11:57:38.167Z,16.30
2017-11-29T12:00:06.151Z,25.23
2017-11-29T12:02:33.721Z,21.80
2017-11-29T12:07:51.695Z,28.43
2017-11-29T12:10:19.310Z,21.40
2017-11-29T12:12:46.955Z,20.37
2017-11-29T12:15:14.592Z,24.90
2017-11-29T12:17:42.200Z,16.13
2017-11-29T12:20:09.856Z,16.30
2017-11-29T12:22:37.440Z,17.00
2017-11-29T12:25:05.011Z,19.83
2017-11-29T12:27:32.631Z,75.70
2017-11-29T12:30:00.265Z,37.47
2017-11-29T12:32:27.909Z,58.50
2017-11-29T12:34:55.534Z,29.33
2017-11-29T12:37:23.116Z,40.70
2017-11-29T12:39:51.208Z,33.53
2017-11-29T12:42:19.204Z,30.23
2017-11-29T12:44:46.828Z,21.77
2017-11-29T12:47:16.260Z,23.40
2017-11-29T12:49:55.902Z,17.50
2017-11-29T12:52:24.689Z,20.50
2017-11-29T12:54:53.283Z,20.87
2017-11-29T12:57:20.849Z,22.00
2017-11-29T12:59:48.911Z,19.90
2017-11-29T13:02:16.813Z,21.57
2017-11-29T13:04:44.393Z,18.50
2017-11-29T13:07:12.248Z,19.30
2017-11-29T13:09:40.103Z,16.00
2017-11-29T13:12:07.678Z,21.10
2017-11-29T13:14:35.283Z,17.60
2017-11-29T13:17:02.985Z,17.93
2017-11-29T13:19:30.561Z,17.53
2017-11-29T13:21:58.546Z,18.77
2017-11-29T13:24:26.383Z,18.47
2017-11-29T13:26:54.046Z,16.53
2017-11-29T13:29:22.363Z,17.97
2017-11-29T13:31:50.090Z,22.60
2017-11-29T13:34:17.683Z,19.60
2017-11-29T13:36:45.337Z,19.20
2017-11-29T13:39:12.951Z,18.63
2017-11-29T13:41:40.530Z,17.70
2017-11-29T13:44:08.103Z,19.30
2017-11-29T13:46:35.794Z,16.67
2017-11-29T13:49:03.378Z,15.27
2017-11-29T13:51:30.986Z,18.60
2017-11-29T13:53:58.642Z,14.70
2017-11-29T13:56:26.257Z,21.23
2017-11-29T13:58:53.851Z,18.60
2017-11-29T14:01:21.415Z,18.87
2017-11-29T14:03:49.065Z,19.33
2017-11-29T14:06:16.673Z,19.47
2017-11-29T14:08:44.226Z,18.90
2017-11-29T14:11:11.799Z,20.73
2017-11-29T14:13:39.388Z,28.40
2017-11-29T14:16:06.947Z,59.00
2017-11-29T14:18:34.495Z,26.80
2017-11-29T14:21:02.063Z,24.77
2017-11-29T14:23:30.139Z,20.83
2017-11-29T14:25:57.928Z,50.53
2017-11-29T14:28:25.719Z,21.10
2017-11-29T14:30:53.306Z,36.87
2017-11-29T14:33:20.973Z,33.30
2017-11-29T14:35:48.638Z,31.80
2017-11-29T14:38:16.284Z,34.60
2017-11-29T14:40:43.880Z,31.43
2017-11-29T14:43:11.743Z,41.87
2017-11-29T14:45:39.419Z,33.40
2017-11-29T14:48:07.191Z,30.77
2017-11-29T14:50:34.816Z,31.63
2017-11-29T14:53:02.386Z,57.30
2017-11-29T14:55:30.299Z,28.30
2017-11-29T14:57:57.885Z,24.00
2017-11-29T15:00:25.444Z,24.63
2017-11-29T15:02:53.012Z,22.90
2017-11-29T15:05:20.636Z,30.80
2017-11-29T15:07:49.241Z,21.50
2017-11-29T15:10:16.811Z,17.87
2017-11-29T15:12:44.429Z,23.37
2017-11-29T15:15:12.043Z,22.53
2017-11-29T15:17:39.687Z,24.87
2017-11-29T15:20:07.302Z,24.97
2017-11-29T15:22:34.897Z,22.53
2017-11-29T15:25:02.565Z,26.80
2017-11-29T15:27:30.269Z,19.73
2017-11-29T15:29:58.731Z,19.87
2017-11-29T15:32:26.843Z,23.87
2017-11-29T15:34:55.860Z,29.90
2017-11-29T15:37:23.752Z,24.80
2017-11-29T15:39:51.352Z,22.03
2017-11-29T15:42:18.995Z,28.00
2017-11-29T15:44:46.568Z,27.70
2017-11-29T15:47:14.575Z,23.00
2017-11-29T15:49:42.201Z,34.70
2017-11-29T15:52:11.216Z,25.17
2017-11-29T15:54:40.147Z,28.03
2017-11-29T15:57:07.761Z,22.27
2017-11-29T15:59:35.334Z,30.20
2017-11-29T16:02:02.910Z,24.00
2017-11-29T16:04:30.556Z,27.90
2017-11-29T16:06:58.158Z,19.90
2017-11-29T16:09:26.343Z,14.50
2017-11-29T16:11:54.285Z,21.03
2017-11-29T16:14:21.962Z,17.20
2017-11-29T16:16:49.573Z,16.83
2017-11-29T16:19:17.918Z,19.47
2017-11-29T16:21:47.485Z,22.27
2017-11-29T16:24:15.665Z,18.20
2017-11-29T16:26:43.324Z,19.50
2017-11-29T16:29:11.455Z,19.20
2017-11-29T16:31:39.036Z,18.97
2017-11-29T16:34:06.633Z,21.00
2017-11-29T16:36:34.225Z,16.87
2017-11-29T16:39:01.845Z,21.60
2017-11-29T16:41:29.450Z,18.50
2017-11-29T16:43:57.314Z,17.30
2017-11-29T16:46:25.846Z,19.37
2017-11-29T16:48:53.531Z,19.47
2017-11-29T16:51:21.652Z,28.77
2017-11-29T16:53:49.401Z,27.23
2017-11-29T16:56:16.972Z,32.90
2017-11-29T16:58:44.662Z,34.70
2017-11-29T17:01:12.252Z,25.27
2017-11-29T17:03:39.867Z,22.60
2017-11-29T17:06:07.475Z,19.67
2017-11-29T17:08:40.059Z,21.13
2017-11-29T17:11:07.769Z,18.50
2017-11-29T17:13:35.412Z,13.40
2017-11-29T17:16:05.022Z,13.47
2017-11-29T17:18:32.577Z,14.83
2017-11-29T17:21:00.222Z,15.50
2017-11-29T17:23:27.992Z,13.10
2017-11-29T17:25:55.622Z,11.90
2017-11-29T17:28:23.225Z,11.83
2017-11-29T17:30:50.856Z,11.53
2017-11-29T17:33:18.443Z,13.60
2017-11-29T17:35:46.023Z,11.37
2017-11-29T17:38:13.802Z,18.27
2017-11-29T17:40:41.389Z,17.10
2017-11-29T17:43:09.316Z,24.50
2017-11-29T17:45:36.950Z,57.80
2017-11-29T17:48:04.533Z,163.70
2017-11-29T17:50:32.818Z,100.63
2017-11-29T17:53:00.405Z,22.57
2017-11-29T17:55:27.952Z,16.00
2017-11-29T17:57:55.555Z,17.83
2017-11-29T18:00:23.169Z,17.60
2017-11-29T18:02:50.757Z,18.33
2017-11-29T18:05:18.396Z,14.50
2017-11-29T18:07:46.092Z,14.70
2017-11-29T18:10:13.715Z,18.50
2017-11-29T18:12:41.267Z,18.13
2017-11-29T18:15:08.932Z,30.63
2017-11-29T18:17:36.736Z,26.73
2017-11-29T18:20:04.309Z,89.70
2017-11-29T18:22:31.886Z,45.70
2017-11-29T18:24:59.492Z,38.77
2017-11-29T18:27:27.105Z,43.40
2017-11-29T18:29:54.709Z,44.47
2017-11-29T18:32:22.366Z,67.50
2017-11-29T18:34:49.994Z,51.40
2017-11-29T18:37:17.564Z,41.37
2017-11-29T18:39:45.255Z,62.37
2017-11-29T18:42:13.096Z,43.00
2017-11-29T18:44:40.897Z,50.80
2017-11-29T18:47:08.543Z,61.33
2017-11-29T18:49:36.189Z,61.57
2017-11-29T18:52:03.744Z,52.40
2017-11-29T18:54:31.493Z,58.17
2017-11-29T18:56:59.085Z,50.80
2017-11-29T18:59:26.666Z,48.50
2017-11-29T19:01:54.410Z,48.50
2017-11-29T19:04:22.021Z,43.10
2017-11-29T19:06:49.614Z,54.80
2017-11-29T19:09:17.237Z,52.33
2017-11-29T19:11:44.895Z,51.97
2017-11-29T19:14:12.518Z,58.37
2017-11-29T19:16:40.167Z,57.67
2017-11-29T19:19:08.743Z,57.43
2017-11-29T19:21:36.310Z,61.23
2017-11-29T19:24:03.911Z,62.47
2017-11-29T19:26:31.500Z,52.37
2017-11-29T19:28:59.422Z,48.93
2017-11-29T19:31:27.027Z,47.97
2017-11-29T19:33:54.584Z,54.93
2017-11-29T19:36:22.168Z,57.03
2017-11-29T19:38:49.811Z,54.57
2017-11-29T19:41:17.391Z,48.70
2017-11-29T19:43:45.021Z,54.10
2017-11-29T19:46:13.487Z,60.37
2017-11-29T19:48:42.765Z,60.53
2017-11-29T19:51:10.593Z,56.53
2017-11-29T19:53:38.224Z,58.10
2017-11-29T19:56:08.737Z,57.90
2017-11-29T19:58:36.509Z,66.53
2017-11-29T20:01:04.128Z,70.57
2017-11-29T20:03:31.691Z,60.90
2017-11-29T20:05:59.301Z,57.30
2017-11-29T20:08:26.897Z,54.03
2017-11-29T20:10:54.459Z,55.17
2017-11-29T20:13:22.256Z,60.13
2017-11-29T20:15:49.870Z,71.17
2017-11-29T20:18:17.470Z,56.67
2017-11-29T20:20:45.473Z,65.77
2017-11-29T20:23:13.097Z,61.37
2017-11-29T20:25:40.725Z,59.43
2017-11-29T20:28:08.395Z,65.80
2017-11-29T20:30:36.566Z,60.63
2017-11-29T20:33:04.219Z,70.13
2017-11-29T20:35:32.647Z,64.87
2017-11-29T20:38:00.218Z,71.50
2017-11-29T20:40:27.896Z,85.30
2017-11-29T20:42:55.551Z,91.73
2017-11-29T20:45:23.569Z,84.63
2017-11-29T20:47:51.140Z,83.47
2017-11-29T20:50:18.728Z,62.30
2017-11-29T20:52:55.198Z,65.47
2017-11-29T20:55:22.772Z,60.23
2017-11-29T20:57:50.378Z,85.20
2017-11-29T21:00:17.965Z,74.37
2017-11-29T21:02:45.540Z,69.70
2017-11-29T21:05:13.304Z,154.33
2017-11-29T21:07:41.106Z,78.47
2017-11-29T21:10:08.706Z,68.83
2017-11-29T21:12:36.371Z,76.97
2017-11-29T21:15:04.016Z,71.33
2017-11-29T21:17:31.692Z,70.83
2017-11-29T21:19:59.394Z,76.30
2017-11-29T21:22:27.006Z,81.20
2017-11-29T21:24:54.677Z,86.17
2017-11-29T21:27:22.239Z,80.83
2017-11-29T21:29:49.826Z,84.00
2017-11-29T21:32:17.458Z,65.90
2017-11-29T21:34:45.010Z,67.83
2017-11-29T21:37:12.700Z,71.37
2017-11-29T21:39:40.270Z,68.33
2017-11-29T21:42:07.840Z,68.77
2017-11-29T21:44:35.474Z,64.60
2017-11-29T21:47:03.072Z,68.87
2017-11-29T21:49:30.971Z,65.23
2017-11-29T21:51:58.572Z,73.77
2017-11-29T21:54:26.197Z,69.97
2017-11-29T21:56:53.767Z,76.50
2017-11-29T21:59:21.377Z,65.57
2017-11-29T22:01:48.980Z,54.13
2017-11-29T22:04:16.574Z,59.90
2017-11-29T22:06:44.136Z,66.80
2017-11-29T22:09:11.851Z,55.13
2017-11-29T22:11:39.509Z,75.70
2017-11-29T22:14:07.244Z,95.87
2017-11-29T22:16:34.823Z,92.87
2017-11-29T22:19:02.441Z,78.07
2017-11-29T22:21:30.055Z,76.80
2017-11-29T22:23:57.635Z,71.80
2017-11-29T22:26:25.253Z,72.47
2017-11-29T22:28:52.840Z,61.90
2017-11-29T22:31:20.424Z,81.63
2017-11-29T22:33:48.008Z,89.63
2017-11-29T22:36:15.584Z,65.90
2017-11-29T22:38:43.163Z,56.30
2017-11-29T22:41:10.856Z,56.30
2017-11-29T22:43:38.430Z,49.47
2017-11-29T22:46:06.021Z,48.13
2017-11-29T22:48:33.634Z,52.70
2017-11-29T22:51:01.216Z,50.03
2017-11-29T22:53:28.784Z,49.40
2017-11-29T22:55:56.364Z,47.40
2017-11-29T22:58:24.047Z,46.50
2017-11-29T23:00:51.660Z,48.60
2017-11-29T23:03:19.264Z,53.57
2017-11-29T23:05:46.816Z,51.27
2017-11-29T23:08:14.375Z,38.87
2017-11-29T23:10:41.958Z,36.27
2017-11-29T23:13:10.218Z,33.90
2017-11-29T23:15:37.845Z,36.77
2017-11-29T23:18:05.731Z,40.07
2017-11-29T23:20:33.279Z,41.70
2017-11-29T23:23:00.866Z,40.63
2017-11-29T23:25:29.487Z,46.37
2017-11-29T23:27:57.171Z,41.47
2017-11-29T23:30:24.732Z,47.87
2017-11-29T23:32:53.907Z,51.00
2017-11-29T23:35:21.984Z,48.63
2017-11-29T23:37:49.623Z,62.53
2017-11-29T23:40:17.219Z,45.00
2017-11-29T23:42:44.793Z,47.00
2017-11-29T23:45:12.389Z,48.37
2017-11-29T23:47:39.939Z,43.37
2017-11-29T23:50:07.526Z,36.63
2017-11-29T23:52:35.180Z,30.80
2017-11-29T23:55:02.786Z,23.80
2017-11-29T23:57:30.354Z,23.30
2017-11-29T23:59:57.939Z,19.40
